Sky Queen — 3EHV9 — position and weather

sailwx.info

Track history (hours):
 
Tides and Currents Weather Stations Pressure Air Temp Water Temp Dewpoint Dewpoint Depression Visibility Wind Speed Wind Dir Waves Ship Positions

Sky Queen

Last reported at 2014-Nov-16 11:20 UTC. Time now 2014-Nov-25 23:14 UTC.
Position N 37°39' E 122°03'.
Warning: this ship's position is 9 days out of date.

Length 89 m; draft 4.7 m.

Type: Cargo ship. MMSI: 372259000.

Date/timePositionNaut miles runAvg speedWind from/ knotsBaromVisibWave heightAir tempDewpointWater temp
2014-Nov-16 11:20N 37°39' E 122°03'22 9.6
2014-Nov-16 09:05N 37°38' E 121°36'5 9.3
2014-Nov-16 08:33N 37°38' E 121°30'7 6.3
2014-Nov-16 07:29N 37°34' E 121°23'0 0.0
2014-Nov-16 06:29N 37°34' E 121°23'0 0.0
2014-Nov-16 05:29N 37°34' E 121°23'0 0.0
2014-Nov-16 04:29N 37°34' E 121°23'0 0.0
2014-Nov-16 03:29N 37°34' E 121°23'0 0.0
2014-Nov-16 02:29N 37°34' E 121°23'0 0.0
2014-Nov-16 01:29N 37°34' E 121°23'0 0.0
2014-Nov-16 00:29N 37°34' E 121°23'0 0.0
2014-Nov-15 23:29N 37°34' E 121°23'0 0.0
2014-Nov-15 22:29N 37°34' E 121°23'0 0.0
2014-Nov-15 21:29N 37°34' E 121°23'0 0.0
2014-Nov-15 20:29N 37°34' E 121°23'0 0.0
2014-Nov-15 19:29N 37°34' E 121°23'0 0.0
2014-Nov-15 18:29N 37°34' E 121°23'0 0.0
2014-Nov-15 17:29N 37°34' E 121°23'0 0.0
2014-Nov-15 16:29N 37°34' E 121°23'0 0.0
2014-Nov-15 15:29N 37°34' E 121°23'0 0.0
2014-Nov-15 14:29N 37°34' E 121°23'0 0.0
2014-Nov-15 13:29N 37°34' E 121°23'0 0.0
2014-Nov-15 12:29N 37°34' E 121°23'0 0.0
2014-Nov-15 11:29N 37°34' E 121°23'0 0.0
2014-Nov-15 10:29N 37°34' E 121°23'0 0.0
2014-Nov-15 09:29N 37°34' E 121°23'0 0.0
2014-Nov-15 08:29N 37°34' E 121°23'0 0.0
2014-Nov-15 07:33N 37°34' E 121°23'0 0.0
2014-Nov-15 06:33N 37°34' E 121°23'0 0.0
2014-Nov-15 05:33N 37°34' E 121°23'0 0.0
2014-Nov-15 04:33N 37°34' E 121°23'0 0.0
2014-Nov-15 03:33N 37°34' E 121°23'0 0.0
2014-Nov-15 02:33N 37°34' E 121°23'2 2.1
2014-Nov-15 01:34N 37°35' E 121°25'7 7.0
2014-Nov-15 00:33N 37°40' E 121°31'0 0.1
2014-Nov-14 23:34N 37°40' E 121°31'0 0.0
2014-Nov-14 22:33N 37°40' E 121°31'0 0.0
2014-Nov-14 21:34N 37°40' E 121°31'0 0.0
2014-Nov-14 20:34N 37°40' E 121°31'0 0.0
2014-Nov-14 19:33N 37°40' E 121°31'0 0.1
2014-Nov-14 18:34N 37°40' E 121°31'0 0.0
2014-Nov-14 17:34N 37°40' E 121°31'0 0.0
2014-Nov-14 16:34N 37°40' E 121°31'0 0.0
2014-Nov-14 15:33N 37°40' E 121°31'0 0.0
2014-Nov-14 14:33N 37°40' E 121°31'19 8.0
2014-Nov-14 12:08N 37°40' E 121°55'6 9.4
2014-Nov-14 11:32N 37°40' E 122°03'10 9.1
2014-Nov-14 10:29N 37°40' E 122°15'8 8.9
2014-Nov-14 09:32N 37°40' E 122°25'  
Track history (hours):
 
Tides and Currents Weather Stations Pressure Air Temp Water Temp Dewpoint Dewpoint Depression Visibility Wind Speed Wind Dir Waves Ship Positions

Sky Queen

Last reported at 2014-Nov-16 11:20 UTC. Time now 2014-Nov-25 23:14 UTC.
Position N 37°39' E 122°03'.
Warning: this ship's position is 9 days out of date.

Length 89 m; draft 4.7 m.

Type: Cargo ship. MMSI: 372259000.

Date/timePositionNaut miles runAvg speedWind from/ knotsBaromVisibWave heightAir tempDewpointWater temp
2014-Nov-16 11:20N 37°39' E 122°03'22 9.6
2014-Nov-16 09:05N 37°38' E 121°36'5 9.3
2014-Nov-16 08:33N 37°38' E 121°30'7 6.3
2014-Nov-16 07:29N 37°34' E 121°23'0 0.0
2014-Nov-16 06:29N 37°34' E 121°23'0 0.0
2014-Nov-16 05:29N 37°34' E 121°23'0 0.0
2014-Nov-16 04:29N 37°34' E 121°23'0 0.0
2014-Nov-16 03:29N 37°34' E 121°23'0 0.0
2014-Nov-16 02:29N 37°34' E 121°23'0 0.0
2014-Nov-16 01:29N 37°34' E 121°23'0 0.0
2014-Nov-16 00:29N 37°34' E 121°23'0 0.0
2014-Nov-15 23:29N 37°34' E 121°23'0 0.0
2014-Nov-15 22:29N 37°34' E 121°23'0 0.0
2014-Nov-15 21:29N 37°34' E 121°23'0 0.0
2014-Nov-15 20:29N 37°34' E 121°23'0 0.0
2014-Nov-15 19:29N 37°34' E 121°23'0 0.0
2014-Nov-15 18:29N 37°34' E 121°23'0 0.0
2014-Nov-15 17:29N 37°34' E 121°23'0 0.0
2014-Nov-15 16:29N 37°34' E 121°23'0 0.0
2014-Nov-15 15:29N 37°34' E 121°23'0 0.0
2014-Nov-15 14:29N 37°34' E 121°23'0 0.0
2014-Nov-15 13:29N 37°34' E 121°23'0 0.0
2014-Nov-15 12:29N 37°34' E 121°23'0 0.0
2014-Nov-15 11:29N 37°34' E 121°23'0 0.0
2014-Nov-15 10:29N 37°34' E 121°23'0 0.0
2014-Nov-15 09:29N 37°34' E 121°23'0 0.0
2014-Nov-15 08:29N 37°34' E 121°23'0 0.0
2014-Nov-15 07:33N 37°34' E 121°23'0 0.0
2014-Nov-15 06:33N 37°34' E 121°23'0 0.0
2014-Nov-15 05:33N 37°34' E 121°23'0 0.0
2014-Nov-15 04:33N 37°34' E 121°23'0 0.0
2014-Nov-15 03:33N 37°34' E 121°23'0 0.0
2014-Nov-15 02:33N 37°34' E 121°23'2 2.1
2014-Nov-15 01:34N 37°35' E 121°25'7 7.0
2014-Nov-15 00:33N 37°40' E 121°31'0 0.1
2014-Nov-14 23:34N 37°40' E 121°31'0 0.0
2014-Nov-14 22:33N 37°40' E 121°31'0 0.0
2014-Nov-14 21:34N 37°40' E 121°31'0 0.0
2014-Nov-14 20:34N 37°40' E 121°31'0 0.0
2014-Nov-14 19:33N 37°40' E 121°31'0 0.1
2014-Nov-14 18:34N 37°40' E 121°31'0 0.0
2014-Nov-14 17:34N 37°40' E 121°31'0 0.0
2014-Nov-14 16:34N 37°40' E 121°31'0 0.0
2014-Nov-14 15:33N 37°40' E 121°31'0 0.0
2014-Nov-14 14:33N 37°40' E 121°31'19 8.0
2014-Nov-14 12:08N 37°40' E 121°55'6 9.4
2014-Nov-14 11:32N 37°40' E 122°03'10 9.1
2014-Nov-14 10:29N 37°40' E 122°15'8 8.9
2014-Nov-14 09:32N 37°40' E 122°25'  

Dump ship's entire track history